createdAt,value
2023-03-26T00:00:30.411Z,986.72
2023-03-26T00:01:01.054Z,986.72
2023-03-26T00:01:33.145Z,986.72
2023-03-26T00:02:05.078Z,986.72
2023-03-26T00:02:34.839Z,986.83
2023-03-26T00:02:53.073Z,986.83
2023-03-26T00:03:25.011Z,986.83
2023-03-26T00:03:57.041Z,986.52
2023-03-26T00:04:29.010Z,986.52
2023-03-26T00:05:02.940Z,986.72
2023-03-26T00:05:33.077Z,986.72
2023-03-26T00:06:05.176Z,986.52
2023-03-26T00:06:34.669Z,986.72
2023-03-26T00:06:53.013Z,986.72
2023-03-26T00:07:25.053Z,986.72
2023-03-26T00:08:12.998Z,986.52
2023-03-26T00:08:35.044Z,986.62
2023-03-26T00:09:01.076Z,986.62
2023-03-26T00:09:34.422Z,986.62
2023-03-26T00:10:05.440Z,986.72
2023-03-26T00:10:37.026Z,986.72
2023-03-26T00:11:09.047Z,986.83
2023-03-26T00:11:35.060Z,986.83
2023-03-26T00:11:57.028Z,986.83
2023-03-26T00:12:29.006Z,986.83
2023-03-26T00:13:01.046Z,986.72
2023-03-26T00:13:33.093Z,986.72
2023-03-26T00:14:05.105Z,986.62
2023-03-26T00:14:37.016Z,986.62
2023-03-26T00:15:09.656Z,986.83
2023-03-26T00:15:35.055Z,986.72
2023-03-26T00:15:58.165Z,986.72
2023-03-26T00:16:29.098Z,986.72
2023-03-26T00:17:01.125Z,986.62
2023-03-26T00:17:33.090Z,986.62
2023-03-26T00:18:05.163Z,986.62
2023-03-26T00:18:37.043Z,986.62
2023-03-26T00:19:09.731Z,986.62
2023-03-26T00:19:35.053Z,986.52
2023-03-26T00:19:57.090Z,986.52
2023-03-26T00:20:29.327Z,986.52
2023-03-26T00:21:01.062Z,986.62
2023-03-26T00:21:33.063Z,986.62
2023-03-26T00:22:22.693Z,986.83
2023-03-26T00:22:42.490Z,986.72
2023-03-26T00:23:09.317Z,986.72
2023-03-26T00:23:35.030Z,986.72
2023-03-26T00:23:57.108Z,986.72
2023-03-26T00:24:29.008Z,986.72
2023-03-26T00:25:03.200Z,986.72
2023-03-26T00:25:34.408Z,986.72
2023-03-26T00:26:05.097Z,986.62
2023-03-26T00:26:36.996Z,986.62
2023-03-26T00:27:09.069Z,986.52
2023-03-26T00:27:35.489Z,986.52
2023-03-26T00:27:57.040Z,986.52
2023-03-26T00:28:28.989Z,986.52
2023-03-26T00:29:01.093Z,986.42
2023-03-26T00:29:33.003Z,986.42
2023-03-26T00:30:07.060Z,986.52
2023-03-26T00:30:37.046Z,986.52
2023-03-26T00:31:09.178Z,986.62
2023-03-26T00:31:35.059Z,986.62
2023-03-26T00:31:57.731Z,986.62
2023-03-26T00:32:29.084Z,986.62
2023-03-26T00:33:02.636Z,986.62
2023-03-26T00:33:34.067Z,986.62
2023-03-26T00:34:05.107Z,986.52
2023-03-26T00:34:37.027Z,986.52
2023-03-26T00:35:10.175Z,986.83
2023-03-26T00:35:35.047Z,986.62
2023-03-26T00:35:57.448Z,986.62
2023-03-26T00:36:29.034Z,986.62
2023-03-26T00:37:01.110Z,986.83
2023-03-26T00:37:33.002Z,986.83
2023-03-26T00:38:05.055Z,986.52
2023-03-26T00:38:37.018Z,986.52
2023-03-26T00:39:09.017Z,986.72
2023-03-26T00:39:35.199Z,986.42
2023-03-26T00:39:57.197Z,986.42
2023-03-26T00:40:29.352Z,986.42
2023-03-26T00:41:01.122Z,986.72
2023-03-26T00:41:34.740Z,986.72
2023-03-26T00:42:05.089Z,986.62
2023-03-26T00:42:37.039Z,986.62
2023-03-26T00:43:09.013Z,986.52
2023-03-26T00:43:35.332Z,986.52
2023-03-26T00:43:57.753Z,986.52
2023-03-26T00:44:29.001Z,986.52
2023-03-26T00:45:03.290Z,986.83
2023-03-26T00:45:33.027Z,986.83
2023-03-26T00:46:06.734Z,986.42
2023-03-26T00:46:37.090Z,986.42
2023-03-26T00:47:09.005Z,986.62
2023-03-26T00:47:35.049Z,986.62
2023-03-26T00:47:57.758Z,986.62
2023-03-26T00:48:43.997Z,986.62
2023-03-26T00:49:01.084Z,986.42
2023-03-26T00:49:33.031Z,986.42
2023-03-26T00:50:05.302Z,986.32
2023-03-26T00:50:38.187Z,986.32
2023-03-26T00:51:09.817Z,986.42
2023-03-26T00:51:35.380Z,986.42
2023-03-26T00:51:57.044Z,986.42
2023-03-26T00:52:29.035Z,986.42
2023-03-26T00:53:01.061Z,986.32
2023-03-26T00:53:33.057Z,986.32
2023-03-26T00:54:05.318Z,986.52
2023-03-26T00:54:36.996Z,986.52
2023-03-26T00:55:09.289Z,986.52
2023-03-26T00:55:35.040Z,986.52
2023-03-26T00:55:57.377Z,986.52
2023-03-26T00:56:28.999Z,986.52
2023-03-26T00:57:01.120Z,986.42
2023-03-26T00:57:36.146Z,986.42
2023-03-26T00:58:05.107Z,986.52
2023-03-26T00:58:37.003Z,986.52
2023-03-26T00:59:09.147Z,986.52
2023-03-26T00:59:35.065Z,986.42
2023-03-26T00:59:57.032Z,986.42
2023-03-26T01:00:36.994Z,986.32
2023-03-26T01:01:01.066Z,986.32
2023-03-26T01:01:33.080Z,986.32
2023-03-26T01:02:05.053Z,986.52
2023-03-26T01:02:37.094Z,986.52
2023-03-26T01:03:10.023Z,986.42
2023-03-26T01:03:35.229Z,986.22
2023-03-26T01:04:07.574Z,986.22
2023-03-26T01:04:29.516Z,986.22
2023-03-26T01:05:03.105Z,986.32
2023-03-26T01:05:34.666Z,986.32
2023-03-26T01:06:05.066Z,986.22
2023-03-26T01:06:37.057Z,986.22
2023-03-26T01:07:09.033Z,986.42
2023-03-26T01:07:35.629Z,986.42
2023-03-26T01:07:57.051Z,986.42
2023-03-26T01:08:29.056Z,986.42
2023-03-26T01:09:01.048Z,986.32
2023-03-26T01:09:33.119Z,986.32
2023-03-26T01:10:07.865Z,986.52
2023-03-26T01:10:37.027Z,986.52
2023-03-26T01:11:08.994Z,986.32
2023-03-26T01:11:35.054Z,986.32
2023-03-26T01:11:57.076Z,986.32
2023-03-26T01:12:35.033Z,986.32
2023-03-26T01:13:01.089Z,986.32
2023-03-26T01:13:33.022Z,986.32
2023-03-26T01:14:05.101Z,986.11
2023-03-26T01:14:37.041Z,986.11
2023-03-26T01:15:09.496Z,986.42
2023-03-26T01:15:35.367Z,986.11
2023-03-26T01:15:57.612Z,986.11
2023-03-26T01:16:29.702Z,986.11
2023-03-26T01:17:01.085Z,986.52
2023-03-26T01:17:33.071Z,986.52
2023-03-26T01:18:05.194Z,986.32
2023-03-26T01:18:36.982Z,986.32
2023-03-26T01:19:08.991Z,986.22
2023-03-26T01:19:36.171Z,986.11
2023-03-26T01:19:57.029Z,986.11
2023-03-26T01:20:29.291Z,986.11
2023-03-26T01:21:01.088Z,986.22
2023-03-26T01:21:33.110Z,986.22
2023-03-26T01:22:05.084Z,986.11
2023-03-26T01:22:37.743Z,986.11
2023-03-26T01:23:09.027Z,986.01
2023-03-26T01:23:35.314Z,986.11
2023-03-26T01:23:57.072Z,986.11
2023-03-26T01:24:29.002Z,986.11
2023-03-26T01:25:02.926Z,986.01
2023-03-26T01:25:33.033Z,986.01
2023-03-26T01:26:05.083Z,986.11
2023-03-26T01:26:37.001Z,986.11
2023-03-26T01:27:09.022Z,986.22
2023-03-26T01:27:35.066Z,986.11
2023-03-26T01:27:57.085Z,986.11
2023-03-26T01:28:29.001Z,986.11
2023-03-26T01:29:01.826Z,986.11
2023-03-26T01:29:33.049Z,986.11
2023-03-26T01:30:07.063Z,986.11
2023-03-26T01:30:37.238Z,986.11
2023-03-26T01:31:09.039Z,985.91
2023-03-26T01:31:35.035Z,986.11
2023-03-26T01:31:57.046Z,986.11
2023-03-26T01:32:29.138Z,986.11
2023-03-26T01:33:02.660Z,986.01
2023-03-26T01:33:33.303Z,986.01
2023-03-26T01:34:05.070Z,986.11
2023-03-26T01:34:36.980Z,986.11
2023-03-26T01:35:09.348Z,985.91
2023-03-26T01:35:36.104Z,986.01
2023-03-26T01:35:57.605Z,986.01
2023-03-26T01:36:29.058Z,986.01
2023-03-26T01:37:01.053Z,985.71
2023-03-26T01:37:33.077Z,985.71
2023-03-26T01:38:05.108Z,985.81
2023-03-26T01:38:37.836Z,985.81
2023-03-26T01:39:09.046Z,985.91
2023-03-26T01:39:35.033Z,985.91
2023-03-26T01:39:57.075Z,985.91
2023-03-26T01:40:29.703Z,985.91
2023-03-26T01:41:02.957Z,985.91
2023-03-26T01:41:33.213Z,985.91
2023-03-26T01:42:05.298Z,985.91
2023-03-26T01:42:37.378Z,985.91
2023-03-26T01:43:09.002Z,985.81
2023-03-26T01:43:35.729Z,985.81
2023-03-26T01:43:57.359Z,985.81
2023-03-26T01:44:29.269Z,985.81
2023-03-26T01:45:05.282Z,985.81
2023-03-26T01:45:34.990Z,985.81
2023-03-26T01:46:07.121Z,985.71
2023-03-26T01:46:37.244Z,985.71
2023-03-26T01:47:09.592Z,985.71
2023-03-26T01:47:35.216Z,985.71
2023-03-26T01:47:57.808Z,985.71
2023-03-26T01:48:29.185Z,985.71
2023-03-26T01:49:01.230Z,985.64
2023-03-26T01:49:33.091Z,985.64
2023-03-26T01:50:05.516Z,985.81
2023-03-26T01:50:37.072Z,985.81
2023-03-26T01:51:09.258Z,985.81
2023-03-26T01:51:35.319Z,985.64
2023-03-26T01:51:57.473Z,985.64
2023-03-26T01:52:29.042Z,985.64
2023-03-26T01:53:01.199Z,985.64
2023-03-26T01:53:33.168Z,985.64
2023-03-26T01:54:05.135Z,985.64
2023-03-26T01:54:37.947Z,985.64
2023-03-26T01:55:09.617Z,985.71
2023-03-26T01:55:35.070Z,985.54
2023-03-26T01:55:57.342Z,985.54
2023-03-26T01:56:29.166Z,985.54
2023-03-26T01:57:01.193Z,985.54
2023-03-26T01:57:33.170Z,985.54
2023-03-26T01:58:05.117Z,985.54
2023-03-26T01:58:37.362Z,985.54
2023-03-26T01:59:09.119Z,985.64
2023-03-26T01:59:35.595Z,985.54
2023-03-26T01:59:57.130Z,985.54
2023-03-26T02:00:29.609Z,985.54
2023-03-26T02:01:02.037Z,985.81
2023-03-26T02:01:33.157Z,985.81
2023-03-26T02:02:05.234Z,985.54
2023-03-26T02:02:37.496Z,985.54
2023-03-26T02:03:09.159Z,985.64
2023-03-26T02:03:35.176Z,985.64
2023-03-26T02:03:57.099Z,985.64
2023-03-26T02:04:29.030Z,985.64
2023-03-26T02:05:03.304Z,985.71
2023-03-26T02:05:33.226Z,985.71
2023-03-26T02:06:05.364Z,985.54
2023-03-26T02:06:37.425Z,985.54
2023-03-26T02:07:09.042Z,985.54
2023-03-26T02:07:35.077Z,985.54
2023-03-26T02:07:57.118Z,985.54
2023-03-26T02:08:29.122Z,985.54
2023-03-26T02:09:01.132Z,985.64
2023-03-26T02:09:33.127Z,985.64
2023-03-26T02:10:05.495Z,985.71
2023-03-26T02:10:37.895Z,985.71
2023-03-26T02:11:09.352Z,985.54
2023-03-26T02:11:35.896Z,985.54
2023-03-26T02:11:57.098Z,985.54
2023-03-26T02:12:29.020Z,985.54
2023-03-26T02:13:01.196Z,985.54
2023-03-26T02:13:33.067Z,985.54
2023-03-26T02:14:05.088Z,985.44
2023-03-26T02:14:37.038Z,985.44
2023-03-26T02:15:09.625Z,985.64
2023-03-26T02:15:35.123Z,985.54
2023-03-26T02:15:57.506Z,985.54
2023-03-26T02:16:29.061Z,985.54
2023-03-26T02:17:02.191Z,985.34
2023-03-26T02:17:33.175Z,985.34
2023-03-26T02:18:05.238Z,985.44
2023-03-26T02:18:37.053Z,985.44
2023-03-26T02:19:09.116Z,985.44
2023-03-26T02:19:35.588Z,985.23
2023-03-26T02:19:57.129Z,985.23
2023-03-26T02:20:29.370Z,985.23
2023-03-26T02:21:01.073Z,985.44
2023-03-26T02:21:34.365Z,985.44
2023-03-26T02:22:05.107Z,985.44
2023-03-26T02:22:37.028Z,985.44
2023-03-26T02:23:09.041Z,985.23
2023-03-26T02:23:35.106Z,985.34
2023-03-26T02:23:57.862Z,985.34
2023-03-26T02:24:29.058Z,985.34
2023-03-26T02:25:03.084Z,985.23
2023-03-26T02:25:33.100Z,985.23
2023-03-26T02:26:05.154Z,985.13
2023-03-26T02:26:37.878Z,985.13
2023-03-26T02:27:09.104Z,985.13
2023-03-26T02:27:35.072Z,985.34
2023-03-26T02:27:57.083Z,985.34
2023-03-26T02:28:29.050Z,985.34
2023-03-26T02:29:01.132Z,985.13
2023-03-26T02:29:33.072Z,985.13
2023-03-26T02:30:07.932Z,985.34
2023-03-26T02:30:37.057Z,985.34
2023-03-26T02:31:09.069Z,985.13
2023-03-26T02:31:35.294Z,985.13
2023-03-26T02:31:57.185Z,985.13
2023-03-26T02:32:29.393Z,985.13
2023-03-26T02:33:02.725Z,985.13
2023-03-26T02:33:33.436Z,985.13
2023-03-26T02:34:05.084Z,985.03
2023-03-26T02:34:36.964Z,985.03
2023-03-26T02:35:09.355Z,985.13
2023-03-26T02:35:35.518Z,985.23
2023-03-26T02:35:57.555Z,985.23
2023-03-26T02:36:29.986Z,985.23
2023-03-26T02:37:01.057Z,985.23
2023-03-26T02:37:33.034Z,985.23
2023-03-26T02:38:05.116Z,984.93
2023-03-26T02:38:36.994Z,984.93
2023-03-26T02:39:09.205Z,984.93
2023-03-26T02:39:36.063Z,985.13
2023-03-26T02:39:57.659Z,985.13
2023-03-26T02:40:29.295Z,985.13
2023-03-26T02:41:01.193Z,985.03
2023-03-26T02:41:33.215Z,985.03
2023-03-26T02:42:05.090Z,984.93
2023-03-26T02:42:37.990Z,984.93
2023-03-26T02:43:09.003Z,985.03
2023-03-26T02:43:35.083Z,985.23
2023-03-26T02:43:57.062Z,985.23
2023-03-26T02:44:28.995Z,985.23
2023-03-26T02:45:03.247Z,985.13
2023-03-26T02:45:33.024Z,985.13
2023-03-26T02:46:06.807Z,984.93
2023-03-26T02:46:37.275Z,984.93
2023-03-26T02:47:09.003Z,985.03
2023-03-26T02:47:35.381Z,984.93
2023-03-26T02:47:57.095Z,984.93
2023-03-26T02:48:29.007Z,984.93
2023-03-26T02:49:01.735Z,985.03
2023-03-26T02:49:32.993Z,985.03
2023-03-26T02:50:05.419Z,985.03
2023-03-26T02:50:37.521Z,985.03
2023-03-26T02:51:10.030Z,985.03
2023-03-26T02:51:35.201Z,985.13
2023-03-26T02:51:57.695Z,985.13
2023-03-26T02:52:29.188Z,985.13
2023-03-26T02:53:01.075Z,985.03
2023-03-26T02:53:33.002Z,985.03
2023-03-26T02:54:05.159Z,985.03
2023-03-26T02:54:37.085Z,985.03
2023-03-26T02:55:09.382Z,984.93
2023-03-26T02:55:35.059Z,985.13
2023-03-26T02:55:57.461Z,985.13
2023-03-26T02:56:29.068Z,985.13
2023-03-26T02:57:01.126Z,984.83
2023-03-26T02:57:33.093Z,984.83
2023-03-26T02:58:05.060Z,985.13
2023-03-26T02:58:38.934Z,985.13
2023-03-26T02:59:09.031Z,984.83
2023-03-26T02:59:35.553Z,985.03
2023-03-26T02:59:57.038Z,985.03
2023-03-26T03:00:29.513Z,985.03
2023-03-26T03:01:02.359Z,985.13
2023-03-26T03:01:33.037Z,985.13
2023-03-26T03:02:05.091Z,984.93
2023-03-26T03:02:37.350Z,984.93
2023-03-26T03:03:09.285Z,984.83
2023-03-26T03:03:35.098Z,984.93
2023-03-26T03:03:57.793Z,984.93
2023-03-26T03:04:28.982Z,984.93
2023-03-26T03:05:03.039Z,984.83
2023-03-26T03:05:33.038Z,984.83
2023-03-26T03:06:05.128Z,984.93
2023-03-26T03:06:36.990Z,984.93
2023-03-26T03:07:09.703Z,984.73
2023-03-26T03:07:35.095Z,985.03
2023-03-26T03:07:57.026Z,985.03
2023-03-26T03:08:28.995Z,985.03
2023-03-26T03:09:01.278Z,984.73
2023-03-26T03:09:33.017Z,984.73
2023-03-26T03:10:05.393Z,984.83
2023-03-26T03:10:37.033Z,984.83
2023-03-26T03:11:09.008Z,984.73
2023-03-26T03:11:35.635Z,984.73
2023-03-26T03:11:57.038Z,984.73
2023-03-26T03:12:28.999Z,984.73
2023-03-26T03:13:01.050Z,984.73
2023-03-26T03:13:34.432Z,984.73
2023-03-26T03:14:05.090Z,984.62
2023-03-26T03:14:36.992Z,984.62
2023-03-26T03:15:09.580Z,984.62
2023-03-26T03:15:35.137Z,984.62
2023-03-26T03:15:57.708Z,984.62
2023-03-26T03:16:29.015Z,984.62
2023-03-26T03:17:01.186Z,984.73
2023-03-26T03:17:33.176Z,984.73
2023-03-26T03:18:05.180Z,984.52
2023-03-26T03:18:36.973Z,984.52
2023-03-26T03:19:08.994Z,984.52
2023-03-26T03:19:35.053Z,984.73
2023-03-26T03:19:58.186Z,984.73
2023-03-26T03:20:29.340Z,984.73
2023-03-26T03:21:01.062Z,984.52
2023-03-26T03:21:33.004Z,984.52
2023-03-26T03:22:05.104Z,984.62
2023-03-26T03:22:37.234Z,984.62
2023-03-26T03:23:09.790Z,984.42
2023-03-26T03:23:35.146Z,984.52
2023-03-26T03:23:59.941Z,984.52
2023-03-26T03:24:28.997Z,984.52
2023-03-26T03:25:02.866Z,984.62
2023-03-26T03:25:33.012Z,984.62
2023-03-26T03:26:05.150Z,984.62
2023-03-26T03:26:36.972Z,984.62
2023-03-26T03:27:08.983Z,984.52
2023-03-26T03:27:35.047Z,984.62
2023-03-26T03:27:57.022Z,984.62
2023-03-26T03:28:29.012Z,984.62
2023-03-26T03:29:01.068Z,984.32
2023-03-26T03:29:34.258Z,984.32
2023-03-26T03:30:07.075Z,984.52
2023-03-26T03:30:37.031Z,984.52
2023-03-26T03:31:09.118Z,984.52
2023-03-26T03:31:35.162Z,984.42
2023-03-26T03:31:57.000Z,984.42
2023-03-26T03:32:28.971Z,984.42
2023-03-26T03:33:02.709Z,984.62
2023-03-26T03:33:33.272Z,984.62
2023-03-26T03:34:05.074Z,984.52
2023-03-26T03:34:36.962Z,984.52
2023-03-26T03:35:09.321Z,984.62
2023-03-26T03:35:35.109Z,984.62
2023-03-26T03:35:58.176Z,984.62
2023-03-26T03:36:28.986Z,984.62
2023-03-26T03:37:01.013Z,984.52
2023-03-26T03:37:33.044Z,984.52
2023-03-26T03:38:05.109Z,984.52
2023-03-26T03:38:36.972Z,984.52
2023-03-26T03:39:09.714Z,984.52
2023-03-26T03:39:35.052Z,984.32
2023-03-26T03:39:57.124Z,984.32
2023-03-26T03:40:29.242Z,984.32
2023-03-26T03:41:01.018Z,984.42
2023-03-26T03:41:34.267Z,984.42
2023-03-26T03:42:05.114Z,984.52
2023-03-26T03:42:36.931Z,984.52
2023-03-26T03:43:09.025Z,984.42
2023-03-26T03:43:35.074Z,984.42
2023-03-26T03:43:57.049Z,984.42
2023-03-26T03:44:29.008Z,984.42
2023-03-26T03:45:03.242Z,984.42
2023-03-26T03:45:34.650Z,984.42
2023-03-26T03:46:06.717Z,984.52
2023-03-26T03:46:37.039Z,984.52
2023-03-26T03:47:08.996Z,984.52
2023-03-26T03:47:35.066Z,984.32
2023-03-26T03:47:57.055Z,984.32
2023-03-26T03:48:28.962Z,984.32
2023-03-26T03:49:00.972Z,984.62
2023-03-26T03:49:33.023Z,984.62
2023-03-26T03:50:05.381Z,984.22
2023-03-26T03:50:37.579Z,984.22
2023-03-26T03:51:09.009Z,984.52
2023-03-26T03:51:35.087Z,984.32
2023-03-26T03:51:58.579Z,984.32
2023-03-26T03:52:29.035Z,984.32
2023-03-26T03:53:01.085Z,984.12
2023-03-26T03:53:32.989Z,984.12
2023-03-26T03:54:05.208Z,984.22
2023-03-26T03:54:36.984Z,984.22
2023-03-26T03:55:10.139Z,984.22
2023-03-26T03:55:35.040Z,984.22
2023-03-26T03:55:58.196Z,984.22
2023-03-26T03:56:28.941Z,984.22
2023-03-26T03:57:01.062Z,984.22
2023-03-26T03:57:33.003Z,984.22
2023-03-26T03:58:05.056Z,984.42
2023-03-26T03:58:36.954Z,984.42
2023-03-26T03:59:09.021Z,984.22
2023-03-26T03:59:35.051Z,984.32
2023-03-26T03:59:57.005Z,984.32
2023-03-26T04:00:29.506Z,984.32
2023-03-26T04:01:01.365Z,984.02
2023-03-26T04:01:33.128Z,984.02
2023-03-26T04:02:04.476Z,984.12
2023-03-26T04:02:36.594Z,984.12
2023-03-26T04:03:08.646Z,983.71
2023-03-26T04:03:34.820Z,984.12
2023-03-26T04:03:57.542Z,984.12
2023-03-26T04:04:28.584Z,984.12
2023-03-26T04:05:00.859Z,984.12
2023-03-26T04:05:32.434Z,984.12
2023-03-26T04:06:04.641Z,984.12
2023-03-26T04:06:37.340Z,984.12
2023-03-26T04:07:09.852Z,984.12
2023-03-26T04:07:35.148Z,984.02
2023-03-26T04:07:56.972Z,984.02
2023-03-26T04:08:28.982Z,984.02
2023-03-26T04:09:01.076Z,984.22
2023-03-26T04:09:32.976Z,984.22
2023-03-26T04:10:05.259Z,984.22
2023-03-26T04:10:37.071Z,984.22
2023-03-26T04:11:09.078Z,984.12
2023-03-26T04:11:36.379Z,984.22
2023-03-26T04:11:56.972Z,984.22
2023-03-26T04:12:29.000Z,984.22
2023-03-26T04:13:00.993Z,984.02
2023-03-26T04:13:33.744Z,984.02
2023-03-26T04:14:04.964Z,984.12
2023-03-26T04:14:36.968Z,984.12
2023-03-26T04:15:09.521Z,984.02
2023-03-26T04:15:35.036Z,983.81
2023-03-26T04:15:57.540Z,983.81
2023-03-26T04:16:29.089Z,983.81
2023-03-26T04:17:01.009Z,984.12
2023-03-26T04:17:32.989Z,984.12
2023-03-26T04:18:05.026Z,984.02
2023-03-26T04:18:37.065Z,984.02
2023-03-26T04:19:09.003Z,983.91
2023-03-26T04:19:35.326Z,983.81
2023-03-26T04:19:57.674Z,983.81
2023-03-26T04:20:29.307Z,983.81
2023-03-26T04:21:01.011Z,984.02
2023-03-26T04:21:32.966Z,984.02
2023-03-26T04:22:05.061Z,984.02
2023-03-26T04:22:36.987Z,984.02
2023-03-26T04:23:09.798Z,983.91
2023-03-26T04:23:34.910Z,983.91
2023-03-26T04:23:57.008Z,983.91
2023-03-26T04:24:29.033Z,983.91
2023-03-26T04:25:03.228Z,983.81
2023-03-26T04:25:32.977Z,983.81
2023-03-26T04:26:04.989Z,983.91
2023-03-26T04:26:36.980Z,983.91
2023-03-26T04:27:09.679Z,983.91
2023-03-26T04:27:34.904Z,983.81
2023-03-26T04:27:56.957Z,983.81
2023-03-26T04:28:28.962Z,983.81
2023-03-26T04:29:01.070Z,983.81
2023-03-26T04:29:33.683Z,983.81
2023-03-26T04:30:06.924Z,983.91
2023-03-26T04:30:37.026Z,983.91
2023-03-26T04:31:09.225Z,983.91
2023-03-26T04:31:34.959Z,983.91
2023-03-26T04:31:57.006Z,983.91
2023-03-26T04:32:29.090Z,983.91
2023-03-26T04:33:02.573Z,984.02
2023-03-26T04:33:33.308Z,984.02
2023-03-26T04:34:04.971Z,983.71
2023-03-26T04:34:37.006Z,983.71
2023-03-26T04:35:09.276Z,983.71
2023-03-26T04:35:34.931Z,983.61
2023-03-26T04:35:58.810Z,983.61
2023-03-26T04:36:29.040Z,983.61
2023-03-26T04:37:01.009Z,983.81
2023-03-26T04:37:32.974Z,983.81
2023-03-26T04:38:05.013Z,983.51
2023-03-26T04:38:36.995Z,983.51
2023-03-26T04:39:09.745Z,983.44
2023-03-26T04:39:34.903Z,983.71
2023-03-26T04:39:56.970Z,983.71
2023-03-26T04:40:29.361Z,983.71
2023-03-26T04:41:02.637Z,983.61
2023-03-26T04:41:32.996Z,983.61
2023-03-26T04:42:04.976Z,983.51
2023-03-26T04:42:37.424Z,983.51
2023-03-26T04:43:09.046Z,983.44
2023-03-26T04:43:34.925Z,983.44
2023-03-26T04:43:56.936Z,983.44
2023-03-26T04:44:28.985Z,983.44
2023-03-26T04:45:03.223Z,983.34
2023-03-26T04:45:34.372Z,983.34
2023-03-26T04:46:06.512Z,983.44
2023-03-26T04:46:37.008Z,983.44
2023-03-26T04:47:08.989Z,983.61
2023-03-26T04:47:34.970Z,983.44
2023-03-26T04:47:56.986Z,983.44
2023-03-26T04:48:29.042Z,983.44
2023-03-26T04:49:01.007Z,983.44
2023-03-26T04:49:32.991Z,983.44
2023-03-26T04:50:05.305Z,983.51
2023-03-26T04:50:37.024Z,983.51
2023-03-26T04:51:09.781Z,983.24
2023-03-26T04:51:34.915Z,983.34
2023-03-26T04:51:58.189Z,983.34
2023-03-26T04:52:29.026Z,983.34
2023-03-26T04:53:01.269Z,983.34
2023-03-26T04:53:32.982Z,983.34
2023-03-26T04:54:04.935Z,983.34
2023-03-26T04:54:36.992Z,983.34
2023-03-26T04:55:10.072Z,983.34
2023-03-26T04:55:35.654Z,983.34
2023-03-26T04:55:57.326Z,983.34
2023-03-26T04:56:29.015Z,983.34
2023-03-26T04:57:01.032Z,983.34
2023-03-26T04:57:33.014Z,983.34
2023-03-26T04:58:05.003Z,983.44
2023-03-26T04:58:37.047Z,983.44
2023-03-26T04:59:09.034Z,983.24
2023-03-26T04:59:35.045Z,983.24
2023-03-26T04:59:56.944Z,983.24
2023-03-26T05:00:29.970Z,983.24
2023-03-26T05:01:09.968Z,983.13
2023-03-26T05:01:34.479Z,983.13
2023-03-26T05:02:05.004Z,983.24
2023-03-26T05:02:37.073Z,983.24
2023-03-26T05:03:09.040Z,983.13
2023-03-26T05:03:35.408Z,983.03
2023-03-26T05:03:57.008Z,983.03
2023-03-26T05:04:29.038Z,983.03
2023-03-26T05:05:03.016Z,983.13
2023-03-26T05:05:32.972Z,983.13
2023-03-26T05:06:05.032Z,983.13
2023-03-26T05:06:36.989Z,983.13
2023-03-26T05:07:09.023Z,983.03
2023-03-26T05:07:34.890Z,983.13
2023-03-26T05:07:57.777Z,983.13
2023-03-26T05:08:28.992Z,983.13
2023-03-26T05:09:00.994Z,983.03
2023-03-26T05:09:32.956Z,983.03
2023-03-26T05:10:05.229Z,983.13
2023-03-26T05:10:36.987Z,983.13
2023-03-26T05:11:09.762Z,983.03
2023-03-26T05:11:34.919Z,983.13
2023-03-26T05:11:56.967Z,983.13
2023-03-26T05:12:28.965Z,983.13
2023-03-26T05:13:01.074Z,982.93
2023-03-26T05:13:33.017Z,982.93
2023-03-26T05:14:04.984Z,982.83
2023-03-26T05:14:36.991Z,982.83
2023-03-26T05:15:09.602Z,982.83
2023-03-26T05:15:34.922Z,982.73
2023-03-26T05:15:57.996Z,982.73
2023-03-26T05:16:29.038Z,982.73
2023-03-26T05:17:00.992Z,982.73
2023-03-26T05:17:33.677Z,982.73
2023-03-26T05:18:04.996Z,982.63
2023-03-26T05:18:36.962Z,982.63
2023-03-26T05:19:09.012Z,982.83
2023-03-26T05:19:34.970Z,982.93
2023-03-26T05:19:56.979Z,982.93
2023-03-26T05:20:29.316Z,982.93
2023-03-26T05:21:01.033Z,982.73
2023-03-26T05:21:33.016Z,982.73
2023-03-26T05:22:04.968Z,983.13
2023-03-26T05:22:38.175Z,983.13
2023-03-26T05:23:09.146Z,982.93
2023-03-26T05:23:34.911Z,982.63
2023-03-26T05:23:57.814Z,982.63
2023-03-26T05:24:29.129Z,982.63
2023-03-26T05:25:03.076Z,982.93
2023-03-26T05:25:33.081Z,982.93
2023-03-26T05:26:05.075Z,982.73
2023-03-26T05:26:37.079Z,982.73
2023-03-26T05:27:10.356Z,982.53
2023-03-26T05:27:35.264Z,982.63
2023-03-26T05:27:57.110Z,982.63
2023-03-26T05:28:29.128Z,982.63
2023-03-26T05:29:01.145Z,982.63
2023-03-26T05:29:33.088Z,982.63
2023-03-26T05:30:07.173Z,982.73
2023-03-26T05:30:37.154Z,982.73
2023-03-26T05:31:09.225Z,982.53
2023-03-26T05:31:35.087Z,982.42
2023-03-26T05:31:57.074Z,982.42
2023-03-26T05:32:29.230Z,982.42
2023-03-26T05:33:02.857Z,982.53
2023-03-26T05:33:34.192Z,982.53
2023-03-26T05:34:05.101Z,982.63
2023-03-26T05:34:37.408Z,982.63
2023-03-26T05:35:09.485Z,982.53
2023-03-26T05:35:35.080Z,982.53
2023-03-26T05:35:57.868Z,982.53
2023-03-26T05:36:29.161Z,982.53
2023-03-26T05:37:01.158Z,982.32
2023-03-26T05:37:33.142Z,982.32
2023-03-26T05:38:05.074Z,982.73
2023-03-26T05:38:37.412Z,982.73
2023-03-26T05:39:09.164Z,982.42
2023-03-26T05:39:35.547Z,982.53
2023-03-26T05:40:04.695Z,982.53
2023-03-26T05:40:29.170Z,982.53
2023-03-26T05:41:01.146Z,982.42
2023-03-26T05:41:33.064Z,982.42
2023-03-26T05:42:05.118Z,982.22
2023-03-26T05:42:37.077Z,982.22
2023-03-26T05:43:09.847Z,982.53
2023-03-26T05:43:35.845Z,982.63
2023-03-26T05:43:57.205Z,982.63
2023-03-26T05:44:29.124Z,982.63
2023-03-26T05:45:03.512Z,982.42
2023-03-26T05:45:33.581Z,982.42
2023-03-26T05:46:06.578Z,982.22
2023-03-26T05:46:37.187Z,982.22
2023-03-26T05:47:09.210Z,982.42
2023-03-26T05:47:35.142Z,982.32
2023-03-26T05:47:57.083Z,982.32
2023-03-26T05:48:29.126Z,982.32
2023-03-26T05:49:01.140Z,982.32
2023-03-26T05:49:33.691Z,982.32
2023-03-26T05:50:05.360Z,982.32
2023-03-26T05:50:37.102Z,982.32
2023-03-26T05:51:09.217Z,982.32
2023-03-26T05:51:35.054Z,982.12
2023-03-26T05:51:57.112Z,982.12
2023-03-26T05:52:29.164Z,982.12
2023-03-26T05:53:01.224Z,982.32
2023-03-26T05:53:33.082Z,982.32
2023-03-26T05:54:05.054Z,982.42
2023-03-26T05:54:37.089Z,982.42
2023-03-26T05:55:09.479Z,982.42
2023-03-26T05:55:35.113Z,982.22
2023-03-26T05:55:58.375Z,982.22
2023-03-26T05:56:29.126Z,982.22
2023-03-26T05:57:01.179Z,982.32
2023-03-26T05:57:34.087Z,982.32
2023-03-26T05:58:05.092Z,982.32
2023-03-26T05:58:37.101Z,982.32
2023-03-26T05:59:09.854Z,982.22
2023-03-26T05:59:35.039Z,982.22
2023-03-26T05:59:57.080Z,982.22
2023-03-26T06:00:35.869Z,982.12
2023-03-26T06:01:17.179Z,982.12
2023-03-26T06:01:38.666Z,982.32
2023-03-26T06:02:42.578Z,982.22
2023-03-26T06:03:09.735Z,982.22
2023-03-26T06:03:35.234Z,982.22
2023-03-26T06:04:36.696Z,982.22
2023-03-26T06:05:39.203Z,982.32
2023-03-26T06:06:37.085Z,982.32
2023-03-26T06:07:09.162Z,982.12
2023-03-26T06:07:35.509Z,982.22
2023-03-26T06:08:35.523Z,982.02
2023-03-26T06:09:02.988Z,982.02
2023-03-26T06:09:33.126Z,982.02
2023-03-26T06:10:05.355Z,981.92
2023-03-26T06:10:42.621Z,982.12
2023-03-26T06:11:09.197Z,982.12
2023-03-26T06:11:35.032Z,982.02
2023-03-26T06:11:57.080Z,982.02
2023-03-26T06:12:29.132Z,982.02
2023-03-26T06:13:01.133Z,982.02
2023-03-26T06:13:33.166Z,982.02
2023-03-26T06:14:05.862Z,981.92
2023-03-26T06:14:42.521Z,982.02
2023-03-26T06:15:35.500Z,982.02
2023-03-26T06:15:57.550Z,982.02
2023-03-26T06:16:29.196Z,982.02
2023-03-26T06:17:01.118Z,981.71
2023-03-26T06:17:38.585Z,981.71